createdAt,value
2022-11-15T00:01:28.608Z,279.55
2022-11-15T00:04:13.923Z,349.65
2022-11-15T00:06:59.201Z,238.98
2022-11-15T00:09:46.135Z,318.05
2022-11-15T00:12:31.610Z,234.85
2022-11-15T00:15:17.129Z,234.77
2022-11-15T00:18:04.675Z,165.70
2022-11-15T00:20:49.666Z,198.50
2022-11-15T00:23:35.017Z,366.52
2022-11-15T00:26:20.408Z,223.68
2022-11-15T00:29:05.545Z,346.65
2022-11-15T00:31:50.858Z,336.73
2022-11-15T00:34:36.025Z,319.83
2022-11-15T00:37:21.373Z,255.38
2022-11-15T00:40:07.227Z,290.73
2022-11-15T00:42:53.426Z,394.33
2022-11-15T00:45:39.482Z,310.17
2022-11-15T00:48:24.918Z,303.10
2022-11-15T00:51:09.892Z,200.93
2022-11-15T00:53:55.389Z,307.77
2022-11-15T00:56:40.564Z,316.33
2022-11-15T00:59:25.721Z,276.23
2022-11-15T01:02:10.904Z,275.35
2022-11-15T01:04:56.272Z,170.68
2022-11-15T01:07:41.598Z,389.17
2022-11-15T01:10:27.028Z,178.80
2022-11-15T01:13:12.362Z,233.30
2022-11-15T01:15:57.563Z,299.83
2022-11-15T01:18:44.418Z,299.15
2022-11-15T01:21:29.748Z,215.15
2022-11-15T01:24:18.068Z,227.27
2022-11-15T01:27:02.957Z,294.88
2022-11-15T01:29:48.727Z,220.35
2022-11-15T01:32:34.104Z,184.02
2022-11-15T01:35:19.582Z,273.63
2022-11-15T01:38:04.742Z,422.02
2022-11-15T01:40:50.439Z,327.20
2022-11-15T01:43:37.784Z,238.10
2022-11-15T01:46:25.198Z,357.17
2022-11-15T01:49:17.946Z,252.48
2022-11-15T01:52:08.167Z,270.70
2022-11-15T01:55:03.431Z,313.48
2022-11-15T01:57:52.043Z,174.32
2022-11-15T02:00:37.489Z,399.75
2022-11-15T02:03:27.558Z,377.38
2022-11-15T02:06:12.822Z,347.25
2022-11-15T02:08:58.454Z,299.13
2022-11-15T02:11:46.389Z,235.55
2022-11-15T02:14:33.150Z,243.93
2022-11-15T02:17:34.196Z,352.10
2022-11-15T02:20:37.319Z,394.15
2022-11-15T02:23:22.420Z,246.63
2022-11-15T02:26:19.455Z,237.65
2022-11-15T02:29:42.018Z,238.15
2022-11-15T02:32:45.951Z,264.40
2022-11-15T02:36:16.656Z,256.67
2022-11-15T02:39:16.155Z,287.90
2022-11-15T02:42:28.564Z,303.30
2022-11-15T02:45:20.231Z,155.60
2022-11-15T02:48:07.671Z,207.00
2022-11-15T02:50:53.274Z,294.08
2022-11-15T02:53:38.416Z,260.33
2022-11-15T02:56:23.690Z,218.93
2022-11-15T02:59:30.835Z,264.52
2022-11-15T03:02:54.785Z,231.93
2022-11-15T03:05:59.078Z,240.88
2022-11-15T03:08:53.055Z,229.68
2022-11-15T03:11:49.650Z,309.67
2022-11-15T03:14:42.402Z,207.85
2022-11-15T03:20:31.661Z,421.83
2022-11-15T03:23:18.438Z,247.90
2022-11-15T03:26:07.873Z,197.02
2022-11-15T03:29:04.335Z,190.93
2022-11-15T03:31:54.772Z,319.25
2022-11-15T03:34:49.970Z,393.45
2022-11-15T03:37:40.032Z,207.90
2022-11-15T03:40:49.091Z,156.65
2022-11-15T03:44:00.867Z,255.55
2022-11-15T03:46:55.879Z,273.45
2022-11-15T03:49:46.764Z,227.00
2022-11-15T03:52:34.624Z,279.48
2022-11-15T03:55:21.795Z,386.45
2022-11-15T03:58:07.296Z,299.48
2022-11-15T04:00:52.566Z,197.20
2022-11-15T04:03:37.606Z,218.02
2022-11-15T04:06:23.799Z,191.68
2022-11-15T04:09:08.761Z,301.90
2022-11-15T04:11:54.032Z,252.77
2022-11-15T04:14:59.296Z,138.38
2022-11-15T04:17:45.645Z,291.83
2022-11-15T04:20:50.719Z,105.88
2022-11-15T04:24:08.192Z,114.18
2022-11-15T04:26:53.238Z,386.10
2022-11-15T04:29:38.323Z,278.77
2022-11-15T04:32:23.718Z,175.10
2022-11-15T04:35:09.086Z,369.58
2022-11-15T04:37:54.784Z,304.30
2022-11-15T04:40:39.846Z,158.55
2022-11-15T04:43:25.216Z,242.05
2022-11-15T04:46:10.566Z,316.08
2022-11-15T04:48:59.045Z,314.17
2022-11-15T04:51:45.317Z,355.08
2022-11-15T04:54:30.823Z,434.10
2022-11-15T04:57:16.426Z,195.40
2022-11-15T05:00:03.683Z,240.45
2022-11-15T05:03:07.572Z,344.45
2022-11-15T05:05:52.723Z,209.38
2022-11-15T05:10:57.674Z,373.75
2022-11-15T05:13:42.637Z,207.85
2022-11-15T05:16:27.908Z,203.10
2022-11-15T05:19:13.363Z,126.38
2022-11-15T05:21:58.928Z,208.23
2022-11-15T05:24:44.161Z,206.38
2022-11-15T05:27:29.786Z,145.63
2022-11-15T05:30:15.818Z,359.50
2022-11-15T05:33:01.771Z,224.05
2022-11-15T05:35:55.471Z,165.48
2022-11-15T05:38:40.805Z,218.60
2022-11-15T05:41:47.973Z,142.25
2022-11-15T05:44:34.099Z,184.98
2022-11-15T05:47:25.820Z,203.30
2022-11-15T05:50:15.426Z,273.08
2022-11-15T05:53:05.344Z,248.50
2022-11-15T05:55:50.932Z,209.85
2022-11-15T05:58:37.974Z,246.55
2022-11-15T06:01:23.458Z,270.80
2022-11-15T06:04:08.659Z,422.13
2022-11-15T06:06:53.763Z,273.45
2022-11-15T06:09:39.185Z,134.25
2022-11-15T06:12:24.415Z,312.60
2022-11-15T06:15:09.804Z,293.45
2022-11-15T06:17:58.416Z,287.55
2022-11-15T06:20:43.629Z,217.02
2022-11-15T06:23:32.306Z,150.65
2022-11-15T06:26:17.897Z,345.42
2022-11-15T06:29:06.398Z,283.95
2022-11-15T06:31:51.915Z,315.13
2022-11-15T06:34:37.092Z,184.40
2022-11-15T06:37:22.183Z,341.10
2022-11-15T06:40:09.758Z,148.43
2022-11-15T06:43:00.203Z,505.85
2022-11-15T06:45:45.286Z,148.90
2022-11-15T06:48:31.631Z,210.95
2022-11-15T06:51:16.910Z,162.85
2022-11-15T06:54:02.896Z,441.45
2022-11-15T06:56:48.234Z,311.20
2022-11-15T06:59:36.384Z,259.52
2022-11-15T07:02:25.976Z,232.75
2022-11-15T07:05:11.573Z,245.68
2022-11-15T07:07:58.207Z,259.20
2022-11-15T07:10:43.162Z,148.45
2022-11-15T07:13:30.996Z,186.05
2022-11-15T07:16:16.348Z,738.28
2022-11-15T07:19:01.323Z,398.73
2022-11-15T07:21:46.572Z,288.23
2022-11-15T07:24:31.695Z,375.77
2022-11-15T07:27:16.969Z,308.38
2022-11-15T07:30:02.893Z,295.58
2022-11-15T07:32:48.192Z,219.57
2022-11-15T07:35:33.497Z,479.40
2022-11-15T07:38:21.624Z,548.83
2022-11-15T07:41:07.980Z,325.90
2022-11-15T07:43:53.584Z,305.50
2022-11-15T07:46:38.723Z,199.32
2022-11-15T07:49:24.133Z,410.90
2022-11-15T07:52:09.170Z,163.57
2022-11-15T07:54:54.487Z,149.82
2022-11-15T07:57:39.866Z,170.13
2022-11-15T08:00:25.027Z,229.13
2022-11-15T08:03:12.852Z,213.73
2022-11-15T08:05:57.727Z,190.93
2022-11-15T08:08:43.031Z,151.30
2022-11-15T08:11:28.703Z,155.32
2022-11-15T08:14:13.808Z,219.55
2022-11-15T08:16:59.223Z,158.63
2022-11-15T08:19:44.449Z,100.32
2022-11-15T08:22:29.706Z,215.13
2022-11-15T08:25:15.086Z,123.68
2022-11-15T08:28:03.154Z,148.23
2022-11-15T08:30:48.279Z,259.35
2022-11-15T08:33:36.582Z,269.65
2022-11-15T08:36:21.613Z,312.98
2022-11-15T08:39:07.004Z,330.13
2022-11-15T08:41:53.335Z,134.40
2022-11-15T08:44:38.619Z,151.18
2022-11-15T08:47:24.459Z,111.22
2022-11-15T08:50:09.832Z,153.10
2022-11-15T08:52:55.113Z,138.15
2022-11-15T08:55:41.659Z,137.23
2022-11-15T08:58:26.669Z,123.45
2022-11-15T09:01:20.593Z,166.20
2022-11-15T09:04:06.127Z,135.18
2022-11-15T09:06:51.558Z,220.55
2022-11-15T09:09:36.905Z,145.05
2022-11-15T09:12:22.459Z,143.98
2022-11-15T09:15:08.399Z,141.13
2022-11-15T09:17:53.692Z,177.30
2022-11-15T09:20:39.008Z,168.05
2022-11-15T09:23:25.504Z,176.18
2022-11-15T09:26:11.019Z,142.50
2022-11-15T09:28:56.240Z,146.60
2022-11-15T09:31:41.489Z,195.80
2022-11-15T09:34:27.069Z,168.18
2022-11-15T09:37:13.232Z,165.43
2022-11-15T09:39:58.607Z,143.75
2022-11-15T09:42:55.833Z,132.98
2022-11-15T09:46:20.059Z,148.27
2022-11-15T09:49:05.691Z,167.13
2022-11-15T09:51:36.959Z,137.07
2022-11-15T09:54:45.456Z,116.53
2022-11-15T09:57:03.294Z,134.25
2022-11-15T09:59:51.660Z,138.10
2022-11-15T10:02:33.531Z,134.43
2022-11-15T10:05:01.798Z,141.93
2022-11-15T10:07:40.502Z,110.68
2022-11-15T10:10:46.988Z,124.78
2022-11-15T10:13:45.557Z,134.40
2022-11-15T10:16:29.795Z,129.85
2022-11-15T10:19:18.294Z,112.72
2022-11-15T10:22:03.431Z,109.57
2022-11-15T10:24:38.295Z,115.13
2022-11-15T10:27:14.825Z,132.52
2022-11-15T10:29:47.544Z,168.00
2022-11-15T10:32:16.904Z,117.60
2022-11-15T10:34:44.592Z,105.82
2022-11-15T10:37:11.610Z,104.65
2022-11-15T10:39:38.337Z,115.50
2022-11-15T10:42:37.546Z,96.65
2022-11-15T10:45:24.484Z,111.35
2022-11-15T10:47:51.078Z,99.75
2022-11-15T10:50:30.900Z,101.83
2022-11-15T10:52:58.318Z,95.40
2022-11-15T10:55:32.287Z,101.97
2022-11-15T10:58:23.681Z,95.80
2022-11-15T11:00:53.412Z,99.93
2022-11-15T11:03:35.307Z,84.90
2022-11-15T11:06:17.329Z,87.30
2022-11-15T11:08:55.888Z,75.90
2022-11-15T11:11:22.987Z,89.30
2022-11-15T11:13:49.960Z,78.00
2022-11-15T11:16:41.579Z,75.18
2022-11-15T11:19:35.755Z,74.23
2022-11-15T11:22:21.803Z,83.05
2022-11-15T11:25:29.919Z,81.22
2022-11-15T11:28:18.407Z,81.55
2022-11-15T11:30:53.965Z,86.18
2022-11-15T11:33:32.681Z,79.53
2022-11-15T11:36:20.951Z,78.63
2022-11-15T11:38:56.582Z,82.03
2022-11-15T11:41:44.454Z,80.35
2022-11-15T11:44:22.913Z,82.35
2022-11-15T11:46:52.170Z,82.28
2022-11-15T11:49:25.239Z,88.50
2022-11-15T11:51:59.603Z,92.45
2022-11-15T11:54:32.384Z,81.50
2022-11-15T11:57:00.994Z,87.40
2022-11-15T12:00:03.165Z,77.60
2022-11-15T12:03:11.347Z,79.25
2022-11-15T12:05:40.931Z,83.47
2022-11-15T12:08:39.715Z,77.32
2022-11-15T12:11:30.466Z,75.72
2022-11-15T12:14:04.980Z,85.10
2022-11-15T12:16:34.260Z,84.68
2022-11-15T12:19:03.240Z,87.30
2022-11-15T12:21:44.760Z,89.75
2022-11-15T12:24:36.814Z,87.05
2022-11-15T12:27:28.135Z,88.50
2022-11-15T12:29:59.795Z,93.50
2022-11-15T12:32:36.932Z,93.40
2022-11-15T12:35:06.999Z,87.35
2022-11-15T12:37:41.522Z,94.13
2022-11-15T12:40:24.235Z,95.43
2022-11-15T12:43:25.327Z,93.28
2022-11-15T12:45:51.947Z,85.38
2022-11-15T12:48:18.436Z,76.40
2022-11-15T12:50:51.448Z,82.70
2022-11-15T12:53:24.322Z,81.32
2022-11-15T12:56:13.989Z,82.25
2022-11-15T12:58:48.176Z,80.93
2022-11-15T13:01:40.896Z,84.53
2022-11-15T13:04:27.900Z,86.70
2022-11-15T13:07:01.386Z,93.65
2022-11-15T13:09:37.329Z,86.97
2022-11-15T13:12:04.809Z,94.43
2022-11-15T13:14:50.123Z,84.40
2022-11-15T13:17:22.733Z,90.38
2022-11-15T13:20:07.689Z,93.35
2022-11-15T13:23:03.248Z,97.57
2022-11-15T13:25:56.816Z,92.15
2022-11-15T13:28:50.476Z,105.47
2022-11-15T13:31:29.204Z,105.15
2022-11-15T13:34:00.755Z,101.95
2022-11-15T13:36:31.561Z,99.78
2022-11-15T13:39:02.142Z,110.10
2022-11-15T13:41:34.519Z,98.18
2022-11-15T13:44:02.962Z,99.68
2022-11-15T13:46:30.943Z,96.28
2022-11-15T13:49:09.582Z,106.38
2022-11-15T13:51:48.134Z,128.90
2022-11-15T13:54:24.646Z,114.35
2022-11-15T13:56:58.288Z,112.90
2022-11-15T13:59:31.561Z,91.05
2022-11-15T14:02:15.786Z,116.60
2022-11-15T14:04:54.332Z,111.25
2022-11-15T14:07:24.976Z,123.40
2022-11-15T14:09:51.883Z,111.95
2022-11-15T14:12:34.885Z,117.78
2022-11-15T14:15:25.640Z,111.82
2022-11-15T14:17:52.251Z,105.45
2022-11-15T14:20:38.977Z,104.25
2022-11-15T14:23:27.216Z,102.30
2022-11-15T14:25:58.602Z,101.47
2022-11-15T14:28:25.129Z,104.13
2022-11-15T14:30:57.569Z,97.15
2022-11-15T14:33:31.658Z,98.25
2022-11-15T14:36:03.539Z,92.47
2022-11-15T14:38:30.857Z,102.68
2022-11-15T14:40:58.093Z,103.15
2022-11-15T14:43:25.084Z,115.65
2022-11-15T14:45:51.605Z,100.35
2022-11-15T14:48:18.512Z,108.32
2022-11-15T14:50:45.170Z,101.85
2022-11-15T14:53:17.262Z,105.75
2022-11-15T14:58:10.929Z,109.22
2022-11-15T15:00:40.175Z,104.65
2022-11-15T15:03:07.351Z,108.68
2022-11-15T15:05:38.297Z,103.32
2022-11-15T15:08:06.520Z,107.88
2022-11-15T15:10:40.586Z,107.15
2022-11-15T15:13:19.043Z,96.90
2022-11-15T15:15:46.025Z,132.88
2022-11-15T15:18:12.613Z,110.07
2022-11-15T15:20:41.472Z,105.03
2022-11-15T15:23:20.431Z,115.18
2022-11-15T15:25:49.833Z,115.57
2022-11-15T15:28:16.810Z,106.97
2022-11-15T15:30:43.480Z,114.47
2022-11-15T15:33:10.076Z,100.05
2022-11-15T15:35:36.748Z,107.60
2022-11-15T15:38:03.549Z,106.45
2022-11-15T15:40:33.483Z,105.03
2022-11-15T15:43:00.661Z,114.63
2022-11-15T15:45:28.595Z,117.32
2022-11-15T15:47:55.312Z,125.07
2022-11-15T15:50:26.351Z,138.57
2022-11-15T15:52:55.320Z,120.85
2022-11-15T15:55:22.270Z,123.28
2022-11-15T15:57:49.391Z,143.10
2022-11-15T16:00:17.211Z,155.73
2022-11-15T16:02:44.508Z,149.60
2022-11-15T16:05:14.055Z,151.18
2022-11-15T16:07:41.503Z,147.57
2022-11-15T16:10:25.955Z,148.80
2022-11-15T16:12:54.069Z,147.68
2022-11-15T16:15:22.862Z,149.52
2022-11-15T16:17:52.791Z,154.73
2022-11-15T16:20:38.102Z,156.98
2022-11-15T16:23:09.609Z,171.65
2022-11-15T16:25:48.683Z,160.18
2022-11-15T16:28:27.196Z,144.98
2022-11-15T16:31:03.182Z,160.85
2022-11-15T16:33:30.154Z,155.57
2022-11-15T16:35:57.009Z,159.30
2022-11-15T16:38:23.802Z,151.30
2022-11-15T16:40:50.339Z,145.25
2022-11-15T16:43:17.153Z,142.32
2022-11-15T16:45:43.934Z,127.03
2022-11-15T16:48:28.423Z,119.20
2022-11-15T16:50:57.350Z,116.65
2022-11-15T16:53:25.113Z,120.40
2022-11-15T16:55:52.135Z,125.35
2022-11-15T16:58:18.830Z,130.50
2022-11-15T17:00:46.214Z,116.30
2022-11-15T17:05:29.752Z,114.18
2022-11-15T17:07:56.502Z,104.38
2022-11-15T17:10:24.762Z,113.28
2022-11-15T17:12:51.811Z,97.63
2022-11-15T17:15:19.244Z,93.50
2022-11-15T17:17:51.926Z,90.95
2022-11-15T17:20:20.049Z,109.03
2022-11-15T17:22:47.344Z,107.07
2022-11-15T17:25:14.717Z,105.85
2022-11-15T17:27:41.330Z,108.75
2022-11-15T17:32:40.339Z,127.95
2022-11-15T17:35:11.978Z,132.60
2022-11-15T17:37:41.938Z,119.60
2022-11-15T17:40:09.137Z,129.02
2022-11-15T17:42:37.084Z,120.88
2022-11-15T17:45:09.320Z,113.00
2022-11-15T17:47:36.423Z,112.13
2022-11-15T17:50:03.285Z,116.80
2022-11-15T17:52:30.111Z,109.88
2022-11-15T17:54:56.648Z,114.85
2022-11-15T17:57:23.179Z,237.18
2022-11-15T17:59:49.784Z,197.60
2022-11-15T18:02:16.903Z,525.20
2022-11-15T18:04:43.562Z,472.98
2022-11-15T18:07:11.832Z,476.58
2022-11-15T18:09:42.171Z,421.25
2022-11-15T18:12:09.498Z,295.08
2022-11-15T18:14:36.103Z,277.83
2022-11-15T18:17:02.753Z,407.65
2022-11-15T18:19:29.327Z,273.35
2022-11-15T18:21:56.644Z,336.70
2022-11-15T18:24:34.774Z,264.52
2022-11-15T18:27:03.984Z,218.55
2022-11-15T18:29:30.676Z,213.60
2022-11-15T18:31:57.601Z,215.63
2022-11-15T18:34:26.993Z,212.30
2022-11-15T18:36:53.811Z,258.75
2022-11-15T18:39:20.847Z,147.82
2022-11-15T18:41:48.066Z,168.68
2022-11-15T18:44:15.528Z,730.00
2022-11-15T18:46:44.109Z,525.20
2022-11-15T18:49:13.131Z,605.72
2022-11-15T18:51:42.989Z,471.00
2022-11-15T18:56:26.932Z,367.50
2022-11-15T18:58:55.445Z,243.50
2022-11-15T19:01:27.474Z,171.52
2022-11-15T19:06:29.349Z,119.57
2022-11-15T19:08:58.511Z,196.02
2022-11-15T19:11:28.888Z,146.73
2022-11-15T19:13:57.955Z,179.38
2022-11-15T19:16:24.591Z,177.70
2022-11-15T19:19:03.199Z,168.25
2022-11-15T19:21:31.233Z,169.40
2022-11-15T19:23:58.985Z,139.52
2022-11-15T19:26:27.142Z,102.43
2022-11-15T19:28:57.243Z,83.95
2022-11-15T19:31:25.555Z,85.22
2022-11-15T19:33:53.043Z,88.25
2022-11-15T19:36:27.842Z,116.95
2022-11-15T19:38:57.471Z,146.05
2022-11-15T19:41:25.099Z,183.63
2022-11-15T19:43:52.902Z,160.27
2022-11-15T19:46:21.905Z,193.00
2022-11-15T19:48:48.583Z,199.82
2022-11-15T19:51:21.622Z,200.00
2022-11-15T19:53:49.589Z,228.65
2022-11-15T19:56:18.207Z,230.80
2022-11-15T19:58:45.885Z,286.58
2022-11-15T20:01:26.747Z,255.27
2022-11-15T20:03:55.667Z,229.45
2022-11-15T20:06:24.776Z,243.13
2022-11-15T20:08:51.949Z,252.25
2022-11-15T20:11:20.187Z,255.05
2022-11-15T20:13:47.041Z,252.77
2022-11-15T20:16:22.246Z,253.48
2022-11-15T20:18:50.189Z,242.57
2022-11-15T20:21:18.001Z,248.95
2022-11-15T20:23:44.933Z,269.73
2022-11-15T20:26:12.092Z,277.92
2022-11-15T20:28:39.821Z,245.35
2022-11-15T20:31:07.911Z,267.23
2022-11-15T20:33:35.079Z,251.55
2022-11-15T20:38:24.803Z,249.63
2022-11-15T20:40:56.061Z,248.73
2022-11-15T20:43:25.736Z,235.90
2022-11-15T20:45:52.300Z,225.85
2022-11-15T20:48:18.931Z,226.43
2022-11-15T20:50:47.159Z,223.25
2022-11-15T20:53:17.679Z,215.95
2022-11-15T20:55:48.008Z,213.57
2022-11-15T20:58:16.516Z,204.68
2022-11-15T21:00:44.781Z,203.88
2022-11-15T21:03:12.339Z,192.80
2022-11-15T21:05:41.229Z,176.98
2022-11-15T21:08:08.615Z,194.50
2022-11-15T21:10:53.865Z,195.45
2022-11-15T21:13:20.770Z,184.60
2022-11-15T21:15:47.433Z,194.70
2022-11-15T21:18:14.781Z,192.95
2022-11-15T21:20:41.619Z,188.73
2022-11-15T21:23:08.580Z,172.27
2022-11-15T21:25:37.879Z,184.52
2022-11-15T21:28:04.479Z,185.00
2022-11-15T21:30:31.235Z,189.13
2022-11-15T21:32:57.981Z,180.45
2022-11-15T21:35:24.512Z,183.40
2022-11-15T21:37:56.522Z,168.68
2022-11-15T21:40:24.690Z,213.23
2022-11-15T21:42:51.182Z,242.88
2022-11-15T21:45:17.765Z,226.65
2022-11-15T21:47:46.345Z,217.55
2022-11-15T21:50:14.487Z,231.90
2022-11-15T21:52:41.431Z,230.57
2022-11-15T21:55:09.026Z,231.05
2022-11-15T22:00:19.459Z,228.07
2022-11-15T22:02:46.130Z,218.75
2022-11-15T22:05:12.714Z,222.18
2022-11-15T22:07:39.470Z,236.05
2022-11-15T22:10:06.589Z,275.35
2022-11-15T22:12:33.607Z,244.85
2022-11-15T22:15:00.191Z,237.57
2022-11-15T22:17:46.767Z,226.35
2022-11-15T22:20:37.596Z,214.75
2022-11-15T22:23:00.370Z,210.00
2022-11-15T22:25:26.949Z,232.40
2022-11-15T22:27:54.076Z,236.00
2022-11-15T22:30:21.283Z,225.73
2022-11-15T22:32:48.347Z,223.10
2022-11-15T22:35:14.924Z,232.27
2022-11-15T22:37:42.406Z,226.88
2022-11-15T22:40:09.744Z,224.90
2022-11-15T22:42:36.415Z,222.38
2022-11-15T22:45:03.139Z,217.82
2022-11-15T22:47:29.747Z,209.88
2022-11-15T22:49:56.319Z,199.48
2022-11-15T22:52:22.860Z,231.35
2022-11-15T22:54:49.447Z,189.32
2022-11-15T22:57:16.242Z,185.55
2022-11-15T22:59:42.858Z,177.15
2022-11-15T23:02:09.520Z,175.50
2022-11-15T23:04:36.065Z,179.35
2022-11-15T23:07:02.801Z,184.45
2022-11-15T23:09:29.882Z,179.50
2022-11-15T23:12:14.812Z,244.75
2022-11-15T23:14:41.492Z,350.83
2022-11-15T23:17:08.043Z,372.20
2022-11-15T23:19:34.762Z,278.95
2022-11-15T23:22:19.715Z,207.55
2022-11-15T23:24:46.564Z,162.32
2022-11-15T23:27:15.530Z,137.15
2022-11-15T23:30:00.427Z,88.38
2022-11-15T23:32:45.686Z,136.45
2022-11-15T23:35:12.529Z,141.05
2022-11-15T23:37:39.072Z,148.32
2022-11-15T23:40:06.781Z,144.35
2022-11-15T23:42:33.460Z,173.63
2022-11-15T23:45:00.090Z,150.52
2022-11-15T23:47:26.679Z,139.82
2022-11-15T23:49:53.291Z,166.82
2022-11-15T23:52:20.256Z,258.38
2022-11-15T23:54:46.911Z,302.65
2022-11-15T23:57:13.518Z,288.92
2022-11-15T23:59:45.919Z,302.25
